Robert G. Stone, Jr. — WDD4596 — position and weather

sailwx.info

Track history (hours):
 
Tides and Currents Weather Stations Pressure Air Temp Water Temp Dewpoint Dewpoint Depression Visibility Wind Speed Wind Dir Waves Ship Positions

Robert G. Stone, Jr.

Owner: Kirby Inland Marine, LP, Houston, TX. More information available from US FCC via Universal Licensing System and Coast Guard Vessel Documentation Center.

Last reported at 2017-May-16 09:00 UTC. Time now 2017-May-24 19:34 UTC.
Position N 29°34' W 090°29'.
Warning: this ship's position is 8 days out of date.

Length 118 m; draft 2.7 m.

Type: . MMSI: 367146780.

Date/timePositionNaut miles runAvg speedWind from/ knotsBaromVisibWave heightAir tempDewpointWater temp
2017-May-16 09:00N 29°34' W 090°29'3 5.8
2017-May-16 08:30N 29°34' W 090°32'2 4.5
2017-May-16 08:00N 29°34' W 090°34'3 5.3
2017-May-16 07:30N 29°35' W 090°37'3 5.3
2017-May-16 07:00N 29°36' W 090°40'2 4.5
2017-May-16 06:30N 29°36' W 090°43'3 5.2
2017-May-16 06:00N 29°34' W 090°43'2 4.3
2017-May-16 05:30N 29°33' W 090°45'3 5.1
2017-May-16 05:00N 29°32' W 090°48'3 5.6
2017-May-16 04:30N 29°32' W 090°52'2 4.5
2017-May-16 03:58N 29°33' W 090°54'2 5.3
2017-May-16 03:30N 29°34' W 090°57'3 5.1
2017-May-16 02:57N 29°36' W 090°59'111 4.9
2017-May-15 04:23N 29°56' W 093°04'2 5.1
2017-May-15 04:00N 29°56' W 093°07'3 5.3
2017-May-15 03:30N 29°56' W 093°10'3 5.3
2017-May-15 03:00N 29°58' W 093°12'3 5.3
2017-May-15 02:30N 30°00' W 093°14'2 4.4
2017-May-15 02:00N 30°02' W 093°15'2 4.9
2017-May-15 01:30N 30°04' W 093°16'2 4.2
2017-May-15 01:00N 30°06' W 093°18'1 1.7
2017-May-15 00:30N 30°06' W 093°19'0 0.0
2017-May-15 00:00N 30°06' W 093°19'0 0.0
2017-May-14 23:30N 30°06' W 093°19'2 4.5
2017-May-14 23:00N 30°05' W 093°20'2 4.3
2017-May-14 22:30N 30°04' W 093°22'3 5.8
2017-May-14 22:00N 30°04' W 093°26'3 6.1
2017-May-14 21:30N 30°04' W 093°29'3 5.8
2017-May-14 21:00N 30°04' W 093°33'3 5.8
2017-May-14 20:30N 30°04' W 093°36'3 6.8
2017-May-14 20:00N 30°04' W 093°40'  
Track history (hours):
 
Tides and Currents Weather Stations Pressure Air Temp Water Temp Dewpoint Dewpoint Depression Visibility Wind Speed Wind Dir Waves Ship Positions

Robert G. Stone, Jr.

Owner: Kirby Inland Marine, LP, Houston, TX. More information available from US FCC via Universal Licensing System and Coast Guard Vessel Documentation Center.

Last reported at 2017-May-16 09:00 UTC. Time now 2017-May-24 19:34 UTC.
Position N 29°34' W 090°29'.
Warning: this ship's position is 8 days out of date.

Length 118 m; draft 2.7 m.

Type: . MMSI: 367146780.

Date/timePositionNaut miles runAvg speedWind from/ knotsBaromVisibWave heightAir tempDewpointWater temp
2017-May-16 09:00N 29°34' W 090°29'3 5.8
2017-May-16 08:30N 29°34' W 090°32'2 4.5
2017-May-16 08:00N 29°34' W 090°34'3 5.3
2017-May-16 07:30N 29°35' W 090°37'3 5.3
2017-May-16 07:00N 29°36' W 090°40'2 4.5
2017-May-16 06:30N 29°36' W 090°43'3 5.2
2017-May-16 06:00N 29°34' W 090°43'2 4.3
2017-May-16 05:30N 29°33' W 090°45'3 5.1
2017-May-16 05:00N 29°32' W 090°48'3 5.6
2017-May-16 04:30N 29°32' W 090°52'2 4.5
2017-May-16 03:58N 29°33' W 090°54'2 5.3
2017-May-16 03:30N 29°34' W 090°57'3 5.1
2017-May-16 02:57N 29°36' W 090°59'111 4.9
2017-May-15 04:23N 29°56' W 093°04'2 5.1
2017-May-15 04:00N 29°56' W 093°07'3 5.3
2017-May-15 03:30N 29°56' W 093°10'3 5.3
2017-May-15 03:00N 29°58' W 093°12'3 5.3
2017-May-15 02:30N 30°00' W 093°14'2 4.4
2017-May-15 02:00N 30°02' W 093°15'2 4.9
2017-May-15 01:30N 30°04' W 093°16'2 4.2
2017-May-15 01:00N 30°06' W 093°18'1 1.7
2017-May-15 00:30N 30°06' W 093°19'0 0.0
2017-May-15 00:00N 30°06' W 093°19'0 0.0
2017-May-14 23:30N 30°06' W 093°19'2 4.5
2017-May-14 23:00N 30°05' W 093°20'2 4.3
2017-May-14 22:30N 30°04' W 093°22'3 5.8
2017-May-14 22:00N 30°04' W 093°26'3 6.1
2017-May-14 21:30N 30°04' W 093°29'3 5.8
2017-May-14 21:00N 30°04' W 093°33'3 5.8
2017-May-14 20:30N 30°04' W 093°36'3 6.8
2017-May-14 20:00N 30°04' W 093°40'  

Dump ship's entire track history